Time;durP1;ratioP1;P1;durP2;ratioP2;P2;SDS_P1;SDS_P2;PMS_P1;PMS_P2;Temp;Humidity;BMP_temperature;BMP_pressure;BME280_temperature;BME280_humidity;BME280_pressure;Samples;Min_cycle;Max_cycle;Signal;HPM_P1;HPM_P2
2020/10/07 00:02:31;;;;;;;0.99;0.99;;;;;;;20.51;63.48;99535.47;;;;-53
2020/10/07 00:05:31;;;;;;;1.13;1.03;;;;;;;20.50;63.51;99534.81;;;;-52
2020/10/07 00:08:31;;;;;;;1.20;1.11;;;;;;;20.50;63.52;99540.11;;;;-52
2020/10/07 00:11:31;;;;;;;1.03;0.99;;;;;;;20.49;63.54;99536.22;;;;-52
2020/10/07 00:14:31;;;;;;;1.22;1.09;;;;;;;20.48;63.54;99536.00;;;;-52
2020/10/07 00:17:30;;;;;;;1.08;1.02;;;;;;;20.48;63.54;99537.88;;;;-52
2020/10/07 00:20:31;;;;;;;1.07;1.00;;;;;;;20.48;63.53;99542.98;;;;-52
2020/10/07 00:23:31;;;;;;;1.14;1.04;;;;;;;20.47;63.57;99550.82;;;;-52
2020/10/07 00:26:31;;;;;;;0.90;0.90;;;;;;;20.46;63.55;99550.51;;;;-52
2020/10/07 00:29:31;;;;;;;1.00;0.93;;;;;;;20.46;63.62;99552.79;;;;-52
2020/10/07 00:32:31;;;;;;;1.15;1.06;;;;;;;20.46;63.57;99561.16;;;;-52
2020/10/07 00:35:31;;;;;;;1.09;1.04;;;;;;;20.44;63.62;99567.71;;;;-52
2020/10/07 00:38:31;;;;;;;1.15;1.07;;;;;;;20.44;63.62;99564.19;;;;-51
2020/10/07 00:41:31;;;;;;;1.04;0.92;;;;;;;20.44;63.64;99569.72;;;;-52
2020/10/07 00:44:30;;;;;;;1.05;1.01;;;;;;;20.43;63.63;99566.97;;;;-52
2020/10/07 00:47:31;;;;;;;1.09;0.95;;;;;;;20.42;63.66;99567.48;;;;-52
2020/10/07 00:50:30;;;;;;;1.27;1.10;;;;;;;20.42;63.65;99568.94;;;;-52
2020/10/07 00:53:31;;;;;;;1.06;1.00;;;;;;;20.41;63.66;99572.45;;;;-47
2020/10/07 00:56:31;;;;;;;1.11;1.00;;;;;;;20.41;63.59;99570.34;;;;-47
2020/10/07 00:59:31;;;;;;;1.20;1.10;;;;;;;20.41;63.63;99570.52;;;;-46
2020/10/07 01:02:31;;;;;;;1.21;1.07;;;;;;;20.40;63.61;99568.30;;;;-47
2020/10/07 01:05:30;;;;;;;1.59;1.04;;;;;;;20.39;63.64;99567.26;;;;-47
2020/10/07 01:08:31;;;;;;;0.91;0.91;;;;;;;20.38;63.68;99575.42;;;;-47
2020/10/07 01:11:31;;;;;;;1.02;0.98;;;;;;;20.38;63.66;99577.55;;;;-46
2020/10/07 01:14:31;;;;;;;1.10;1.00;;;;;;;20.38;63.75;99581.37;;;;-52
2020/10/07 01:17:31;;;;;;;1.05;1.00;;;;;;;20.38;63.64;99582.00;;;;-52
2020/10/07 01:20:33;;;;;;;1.11;1.05;;;;;;;20.37;63.73;99583.06;;;;-52
2020/10/07 01:23:30;;;;;;;1.11;1.01;;;;;;;20.37;63.65;99582.59;;;;-52
2020/10/07 01:26:31;;;;;;;1.10;1.00;;;;;;;20.37;63.67;99586.91;;;;-52
2020/10/07 01:29:31;;;;;;;1.21;1.11;;;;;;;20.36;63.73;99584.79;;;;-52
2020/10/07 01:32:37;;;;;;;0.96;0.96;;;;;;;20.35;63.71;99588.30;;;;-52
2020/10/07 01:35:31;;;;;;;0.99;0.93;;;;;;;20.35;63.73;99587.97;;;;-52
2020/10/07 01:38:31;;;;;;;1.12;1.08;;;;;;;20.34;63.75;99586.22;;;;-52
2020/10/07 01:42:31;;;;;;;1.05;1.03;;;;;;;20.34;63.68;99586.55;;;;-52
2020/10/07 01:46:31;;;;;;;0.95;0.90;;;;;;;20.33;63.70;99588.73;;;;-52
2020/10/07 01:50:31;;;;;;;1.02;0.96;;;;;;;20.33;63.70;99593.12;;;;-53
2020/10/07 01:54:31;;;;;;;0.93;0.93;;;;;;;20.32;63.73;99589.90;;;;-52
2020/10/07 01:57:31;;;;;;;1.15;1.05;;;;;;;20.32;63.76;99587.63;;;;-52
2020/10/07 02:02:34;;;;;;;1.07;0.99;;;;;;;20.32;63.77;99592.03;;;;-52
2020/10/07 02:12:00;;;;;;;0.99;0.98;;;;;;;20.28;63.79;99598.48;;;;-51
2020/10/07 02:16:57;;;;;;;1.21;0.92;;;;;;;20.27;63.76;99595.98;;;;-51
2020/10/07 02:19:57;;;;;;;0.97;0.97;;;;;;;20.27;63.79;99599.39;;;;-51
2020/10/07 02:22:56;;;;;;;1.48;1.04;;;;;;;20.27;63.73;99605.23;;;;-51
2020/10/07 02:25:56;;;;;;;1.22;1.10;;;;;;;20.27;63.74;99607.84;;;;-51
2020/10/07 02:28:57;;;;;;;1.00;1.00;;;;;;;20.27;63.81;99605.16;;;;-51
2020/10/07 02:31:56;;;;;;;1.17;1.01;;;;;;;20.26;63.81;99610.55;;;;-51
2020/10/07 02:34:56;;;;;;;0.95;0.93;;;;;;;20.26;63.76;99617.06;;;;-51
2020/10/07 02:37:56;;;;;;;1.12;1.00;;;;;;;20.26;63.76;99619.74;;;;-51
2020/10/07 02:40:57;;;;;;;1.09;1.00;;;;;;;20.26;63.79;99623.57;;;;-51
2020/10/07 02:43:56;;;;;;;0.90;0.90;;;;;;;20.25;63.75;99630.39;;;;-51
2020/10/07 02:46:57;;;;;;;0.95;0.95;;;;;;;20.24;63.80;99629.02;;;;-51
2020/10/07 02:49:56;;;;;;;1.03;1.03;;;;;;;20.24;63.77;99628.78;;;;-51
2020/10/07 02:53:04;;;;;;;1.13;1.06;;;;;;;20.24;63.79;99632.94;;;;-51
2020/10/07 02:55:56;;;;;;;0.98;0.94;;;;;;;20.23;63.77;99631.56;;;;-51
2020/10/07 02:58:56;;;;;;;1.01;1.01;;;;;;;20.23;63.87;99643.77;;;;-51
2020/10/07 03:01:57;;;;;;;1.19;1.09;;;;;;;20.21;63.83;99646.78;;;;-51
2020/10/07 03:04:56;;;;;;;1.14;1.04;;;;;;;20.22;63.81;99651.44;;;;-51
2020/10/07 03:07:56;;;;;;;1.04;1.01;;;;;;;20.21;63.84;99654.02;;;;-51
2020/10/07 03:10:57;;;;;;;0.99;0.99;;;;;;;20.21;63.85;99654.78;;;;-51
2020/10/07 03:13:57;;;;;;;1.29;1.19;;;;;;;20.20;63.82;99654.62;;;;-51
2020/10/07 03:16:58;;;;;;;0.95;0.95;;;;;;;20.20;63.82;99655.67;;;;-51
2020/10/07 03:19:57;;;;;;;1.01;1.00;;;;;;;20.19;63.88;99659.35;;;;-51
2020/10/07 03:22:56;;;;;;;1.23;1.13;;;;;;;20.19;63.82;99659.84;;;;-51
2020/10/07 03:25:57;;;;;;;1.05;1.01;;;;;;;20.19;63.88;99661.30;;;;-51
2020/10/07 03:28:56;;;;;;;0.96;0.90;;;;;;;20.18;63.84;99661.62;;;;-51
2020/10/07 03:31:56;;;;;;;0.81;0.81;;;;;;;20.18;63.85;99665.13;;;;-51
2020/10/07 03:34:57;;;;;;;0.83;0.83;;;;;;;20.17;63.85;99663.84;;;;-51
2020/10/07 03:37:56;;;;;;;0.91;0.91;;;;;;;20.17;63.88;99665.95;;;;-51
2020/10/07 03:40:57;;;;;;;0.90;0.90;;;;;;;20.17;63.83;99666.67;;;;-51
2020/10/07 03:43:57;;;;;;;1.11;1.00;;;;;;;20.16;63.90;99672.70;;;;-51
2020/10/07 03:46:57;;;;;;;1.13;1.03;;;;;;;20.16;63.82;99673.52;;;;-51
2020/10/07 03:49:56;;;;;;;0.83;0.83;;;;;;;20.16;63.90;99676.94;;;;-51
2020/10/07 03:52:56;;;;;;;0.81;0.81;;;;;;;20.16;63.86;99680.92;;;;-51
2020/10/07 03:55:57;;;;;;;0.98;0.98;;;;;;;20.15;63.90;99676.80;;;;-51
2020/10/07 03:58:56;;;;;;;0.87;0.87;;;;;;;20.15;63.86;99680.44;;;;-51
2020/10/07 04:02:15;;;;;;;0.88;0.88;;;;;;;20.14;63.90;99685.48;;;;-51
2020/10/07 04:04:58;;;;;;;0.93;0.89;;;;;;;20.14;63.94;99692.00;;;;-51
2020/10/07 04:07:56;;;;;;;1.17;1.10;;;;;;;20.13;63.94;99695.28;;;;-51
2020/10/07 04:10:56;;;;;;;1.35;0.95;;;;;;;20.13;63.91;99691.92;;;;-47
2020/10/07 04:13:58;;;;;;;1.03;1.03;;;;;;;20.13;63.91;99700.64;;;;-46
2020/10/07 04:16:56;;;;;;;0.90;0.90;;;;;;;20.13;63.89;99703.55;;;;-46
2020/10/07 04:19:56;;;;;;;6.97;1.63;;;;;;;20.05;60.78;99707.70;;;;-46
2020/10/07 04:22:56;;;;;;;2.38;1.48;;;;;;;19.84;60.58;99706.98;;;;-46
2020/10/07 04:25:56;;;;;;;2.84;1.49;;;;;;;19.76;60.48;99716.20;;;;-46
2020/10/07 04:28:57;;;;;;;2.71;1.47;;;;;;;19.63;60.20;99726.50;;;;-46
2020/10/07 04:31:56;;;;;;;3.85;1.43;;;;;;;19.46;60.70;99729.14;;;;-47
2020/10/07 04:34:57;;;;;;;3.89;1.65;;;;;;;19.37;61.46;99732.17;;;;-46
2020/10/07 04:37:56;;;;;;;3.34;1.58;;;;;;;19.49;61.72;99738.30;;;;-45
2020/10/07 04:41:02;;;;;;;2.51;1.45;;;;;;;19.56;61.89;99739.05;;;;-46
2020/10/07 04:43:56;;;;;;;2.81;1.37;;;;;;;19.61;61.80;99738.80;;;;-47
2020/10/07 04:46:57;;;;;;;2.37;1.60;;;;;;;19.67;61.90;99743.87;;;;-48
2020/10/07 04:49:56;;;;;;;2.17;1.29;;;;;;;19.71;61.97;99753.30;;;;-46
2020/10/07 04:52:56;;;;;;;2.40;1.52;;;;;;;19.73;62.12;99751.50;;;;-47
2020/10/07 04:55:56;;;;;;;2.34;1.35;;;;;;;19.75;62.31;99753.76;;;;-46
2020/10/07 04:58:57;;;;;;;1.71;1.31;;;;;;;19.76;62.40;99750.12;;;;-45
2020/10/07 05:01:56;;;;;;;3.46;1.57;;;;;;;19.79;62.45;99756.51;;;;-45
2020/10/07 05:04:58;;;;;;;3.89;1.51;;;;;;;19.80;62.63;99764.40;;;;-45
2020/10/07 05:07:56;;;;;;;6.78;1.68;;;;;;;19.83;62.71;99776.23;;;;-47
2020/10/07 05:10:57;;;;;;;4.29;1.46;;;;;;;19.85;62.79;99788.27;;;;-47
2020/10/07 05:13:56;;;;;;;5.10;1.49;;;;;;;19.85;62.79;99789.88;;;;-47
2020/10/07 05:16:56;;;;;;;4.73;1.60;;;;;;;19.86;62.84;99798.42;;;;-47
2020/10/07 05:19:56;;;;;;;1.89;1.27;;;;;;;19.86;62.88;99802.66;;;;-47
2020/10/07 05:22:56;;;;;;;2.59;1.27;;;;;;;19.86;62.93;99804.92;;;;-47
2020/10/07 05:25:56;;;;;;;5.11;1.61;;;;;;;19.88;62.94;99810.92;;;;-49
2020/10/07 05:28:56;;;;;;;4.37;1.46;;;;;;;19.89;63.04;99812.56;;;;-49
2020/10/07 05:31:56;;;;;;;5.74;1.44;;;;;;;19.91;63.10;99816.44;;;;-49
2020/10/07 05:34:56;;;;;;;6.01;1.49;;;;;;;19.92;63.15;99811.88;;;;-44
2020/10/07 05:37:57;;;;;;;3.24;1.39;;;;;;;19.95;63.12;99815.55;;;;-45
2020/10/07 05:40:56;;;;;;;4.96;1.46;;;;;;;19.94;63.05;99826.59;;;;-45
2020/10/07 05:43:57;;;;;;;4.06;1.71;;;;;;;19.93;63.09;99826.03;;;;-45
2020/10/07 05:46:56;;;;;;;3.22;1.45;;;;;;;19.92;63.13;99829.28;;;;-45
2020/10/07 05:49:57;;;;;;;4.92;1.51;;;;;;;19.92;63.14;99834.16;;;;-45
2020/10/07 05:52:56;;;;;;;2.12;1.43;;;;;;;19.91;63.19;99837.42;;;;-45
2020/10/07 05:56:56;;;;;;;4.26;1.43;;;;;;;19.91;63.27;99834.26;;;;-45
2020/10/07 05:59:56;;;;;;;3.23;1.30;;;;;;;19.91;63.25;99843.77;;;;-45
2020/10/07 06:02:57;;;;;;;2.38;1.36;;;;;;;19.91;63.29;99848.16;;;;-45
2020/10/07 06:05:57;;;;;;;2.67;1.33;;;;;;;19.91;63.27;99851.82;;;;-45
2020/10/07 06:08:56;;;;;;;2.04;1.28;;;;;;;19.92;63.28;99851.81;;;;-45
2020/10/07 06:11:57;;;;;;;2.61;1.31;;;;;;;19.91;63.31;99858.98;;;;-45
2020/10/07 06:14:57;;;;;;;2.78;1.34;;;;;;;19.91;63.34;99861.91;;;;-45
2020/10/07 06:17:56;;;;;;;1.32;1.17;;;;;;;19.92;63.34;99862.70;;;;-45
2020/10/07 06:20:57;;;;;;;2.78;1.33;;;;;;;19.92;63.26;99860.19;;;;-45
2020/10/07 06:23:57;;;;;;;2.03;1.27;;;;;;;19.91;63.34;99859.22;;;;-45
2020/10/07 06:26:56;;;;;;;2.17;1.40;;;;;;;19.92;63.40;99863.34;;;;-47
2020/10/07 06:29:57;;;;;;;1.64;1.25;;;;;;;19.92;63.37;99867.20;;;;-58
2020/10/07 06:32:57;;;;;;;4.66;1.30;;;;;;;19.93;63.37;99874.59;;;;-58
2020/10/07 06:35:56;;;;;;;1.63;1.16;;;;;;;19.92;63.36;99875.47;;;;-58
2020/10/07 06:38:56;;;;;;;2.01;1.20;;;;;;;19.93;63.31;99879.38;;;;-58
2020/10/07 06:41:56;;;;;;;2.17;1.30;;;;;;;19.92;63.39;99885.16;;;;-58
2020/10/07 06:44:56;;;;;;;1.53;1.13;;;;;;;19.91;63.37;99884.02;;;;-58
2020/10/07 06:47:57;;;;;;;1.56;1.10;;;;;;;19.93;63.36;99888.66;;;;-58
2020/10/07 06:50:57;;;;;;;1.91;1.31;;;;;;;19.92;63.38;99889.86;;;;-47
2020/10/07 06:53:56;;;;;;;1.92;1.15;;;;;;;19.93;63.39;99894.11;;;;-47
2020/10/07 06:56:56;;;;;;;1.77;1.15;;;;;;;19.92;63.43;99899.45;;;;-53
2020/10/07 06:59:56;;;;;;;2.31;1.40;;;;;;;19.92;63.44;99909.31;;;;-53
2020/10/07 07:02:56;;;;;;;1.69;1.13;;;;;;;19.93;63.43;99908.75;;;;-45
2020/10/07 07:05:56;;;;;;;2.95;1.24;;;;;;;19.94;63.45;99910.91;;;;-45
2020/10/07 07:08:56;;;;;;;1.67;1.10;;;;;;;19.93;63.42;99914.43;;;;-45
2020/10/07 07:11:56;;;;;;;1.38;1.04;;;;;;;19.93;63.43;99928.16;;;;-45
2020/10/07 07:14:57;;;;;;;1.43;1.21;;;;;;;19.93;63.44;99935.16;;;;-45
2020/10/07 07:17:56;;;;;;;1.33;1.12;;;;;;;19.93;63.45;99938.59;;;;-45
2020/10/07 07:20:57;;;;;;;1.54;1.19;;;;;;;19.93;63.47;99944.84;;;;-58
2020/10/07 07:23:56;;;;;;;1.85;1.19;;;;;;;19.93;63.45;99950.13;;;;-45
2020/10/07 07:26:56;;;;;;;1.86;1.10;;;;;;;19.93;63.47;99953.05;;;;-45
2020/10/07 07:29:56;;;;;;;1.25;1.15;;;;;;;19.93;63.51;99961.52;;;;-47
2020/10/07 07:32:56;;;;;;;1.37;1.16;;;;;;;19.94;63.46;99966.79;;;;-47
2020/10/07 07:35:56;;;;;;;1.01;0.97;;;;;;;19.93;63.46;99974.20;;;;-47
2020/10/07 07:38:56;;;;;;;1.07;1.03;;;;;;;19.95;63.44;99983.47;;;;-47
2020/10/07 07:41:56;;;;;;;1.18;1.06;;;;;;;19.94;63.47;99988.09;;;;-53
2020/10/07 07:44:56;;;;;;;1.19;1.09;;;;;;;19.93;63.49;99994.20;;;;-47
2020/10/07 07:47:56;;;;;;;1.39;1.18;;;;;;;19.94;63.47;99997.86;;;;-45
2020/10/07 07:50:56;;;;;;;1.21;1.10;;;;;;;19.94;63.51;100000.78;;;;-45
2020/10/07 07:53:56;;;;;;;1.50;1.20;;;;;;;19.94;63.49;100009.24;;;;-46
2020/10/07 07:56:56;;;;;;;1.22;1.12;;;;;;;19.94;63.46;100014.28;;;;-45
2020/10/07 07:59:56;;;;;;;1.43;1.11;;;;;;;19.93;63.52;100016.00;;;;-45
2020/10/07 08:02:56;;;;;;;1.47;1.10;;;;;;;19.94;63.51;100025.26;;;;-45
2020/10/07 08:05:56;;;;;;;1.20;1.00;;;;;;;19.93;63.52;100033.41;;;;-45
2020/10/07 08:08:56;;;;;;;1.51;1.19;;;;;;;19.94;63.49;100041.69;;;;-45
2020/10/07 08:11:56;;;;;;;1.92;1.15;;;;;;;19.94;63.52;100044.96;;;;-45
2020/10/07 08:14:56;;;;;;;1.89;1.23;;;;;;;19.94;63.50;100047.45;;;;-53
2020/10/07 08:17:56;;;;;;;1.94;1.14;;;;;;;19.94;63.51;100048.93;;;;-45
2020/10/07 08:20:56;;;;;;;1.03;1.01;;;;;;;19.95;63.51;100055.12;;;;-45
2020/10/07 08:23:56;;;;;;;1.46;1.11;;;;;;;19.95;63.51;100058.22;;;;-45
2020/10/07 08:26:56;;;;;;;2.71;1.09;;;;;;;19.94;63.52;100055.52;;;;-47
2020/10/07 08:29:56;;;;;;;1.12;1.02;;;;;;;19.94;63.53;100058.79;;;;-53
2020/10/07 08:32:56;;;;;;;1.21;1.10;;;;;;;19.94;63.53;100068.06;;;;-53
2020/10/07 08:35:56;;;;;;;1.14;1.09;;;;;;;19.95;63.59;100074.48;;;;-53
2020/10/07 08:38:56;;;;;;;1.13;0.99;;;;;;;19.95;63.53;100072.86;;;;-53
2020/10/07 08:41:56;;;;;;;1.19;1.09;;;;;;;19.94;63.53;100075.52;;;;-47
2020/10/07 08:44:58;;;;;;;1.23;0.96;;;;;;;19.95;63.49;100073.58;;;;-47
2020/10/07 08:47:56;;;;;;;1.10;1.00;;;;;;;19.94;63.52;100075.03;;;;-47
2020/10/07 08:50:56;;;;;;;1.30;1.15;;;;;;;19.95;63.64;100085.87;;;;-48
2020/10/07 08:53:56;;;;;;;0.95;0.95;;;;;;;19.93;63.59;100085.53;;;;-47
2020/10/07 08:56:56;;;;;;;3.91;1.31;;;;;;;19.96;63.60;100088.28;;;;-56
2020/10/07 08:59:56;;;;;;;1.23;1.11;;;;;;;19.98;63.63;100093.08;;;;-51
2020/10/07 09:02:56;;;;;;;1.74;1.05;;;;;;;20.00;63.86;100095.19;;;;-51
2020/10/07 09:05:56;;;;;;;1.99;1.10;;;;;;;20.01;63.81;100099.36;;;;-50
2020/10/07 09:08:57;;;;;;;1.95;1.12;;;;;;;20.01;63.95;100097.40;;;;-51
2020/10/07 09:11:56;;;;;;;1.93;1.10;;;;;;;20.02;64.11;100092.58;;;;-51
2020/10/07 09:14:56;;;;;;;1.25;1.11;;;;;;;20.04;64.02;100099.25;;;;-51
2020/10/07 09:17:56;;;;;;;1.28;1.18;;;;;;;20.06;64.08;100100.88;;;;-57
2020/10/07 09:20:56;;;;;;;3.04;1.16;;;;;;;20.06;64.14;100108.44;;;;-57
2020/10/07 09:23:56;;;;;;;1.20;1.10;;;;;;;20.08;64.23;100110.64;;;;-57
2020/10/07 09:26:56;;;;;;;1.25;1.08;;;;;;;20.10;64.24;100108.27;;;;-52
2020/10/07 09:29:56;;;;;;;4.79;1.15;;;;;;;20.12;64.30;100108.19;;;;-51
2020/10/07 09:32:56;;;;;;;2.08;1.09;;;;;;;20.15;64.36;100113.55;;;;-51
2020/10/07 09:35:56;;;;;;;1.59;1.20;;;;;;;20.17;64.30;100121.02;;;;-61
2020/10/07 09:38:56;;;;;;;1.19;1.09;;;;;;;20.18;64.18;100125.92;;;;-57
2020/10/07 09:41:56;;;;;;;1.93;1.10;;;;;;;20.19;64.14;100126.97;;;;-51
2020/10/07 09:44:57;;;;;;;1.19;1.09;;;;;;;20.20;64.30;100130.71;;;;-53
2020/10/07 09:47:56;;;;;;;2.15;1.15;;;;;;;20.21;64.25;100138.05;;;;-52
2020/10/07 09:50:56;;;;;;;1.48;1.10;;;;;;;20.23;64.23;100148.03;;;;-52
2020/10/07 09:53:56;;;;;;;2.51;1.18;;;;;;;20.24;64.22;100155.13;;;;-51
2020/10/07 09:56:56;;;;;;;2.56;1.04;;;;;;;20.25;64.26;100156.59;;;;-53
2020/10/07 09:59:56;;;;;;;1.82;1.13;;;;;;;20.25;64.20;100157.06;;;;-52
2020/10/07 10:02:56;;;;;;;1.22;1.00;;;;;;;20.27;64.18;100163.23;;;;-54
2020/10/07 10:05:56;;;;;;;1.67;1.20;;;;;;;20.26;64.20;100167.98;;;;-50
2020/10/07 10:08:56;;;;;;;2.21;1.00;;;;;;;20.27;64.23;100171.22;;;;-49
2020/10/07 10:11:56;;;;;;;1.11;1.01;;;;;;;20.28;64.25;100181.31;;;;-56
2020/10/07 10:14:56;;;;;;;2.07;1.10;;;;;;;20.30;64.29;100184.17;;;;-54
2020/10/07 10:17:56;;;;;;;1.38;1.18;;;;;;;20.30;64.26;100194.25;;;;-54
2020/10/07 10:20:56;;;;;;;1.21;1.03;;;;;;;20.30;64.24;100198.31;;;;-54
2020/10/07 10:23:56;;;;;;;2.46;1.09;;;;;;;20.33;64.51;100206.05;;;;-54
2020/10/07 10:26:56;;;;;;;3.17;1.01;;;;;;;20.36;64.40;100206.21;;;;-51
2020/10/07 10:29:56;;;;;;;3.37;1.30;;;;;;;20.39;64.43;100209.53;;;;-54
2020/10/07 10:32:56;;;;;;;10.03;1.15;;;;;;;20.40;64.40;100206.34;;;;-53
2020/10/07 10:35:56;;;;;;;3.49;1.11;;;;;;;20.43;64.58;100203.27;;;;-53
2020/10/07 10:38:56;;;;;;;5.39;1.24;;;;;;;20.43;64.35;100214.25;;;;-51
2020/10/07 10:41:57;;;;;;;7.79;1.06;;;;;;;20.42;64.40;100212.53;;;;-52
2020/10/07 10:44:56;;;;;;;2.15;1.07;;;;;;;20.39;64.28;100211.56;;;;-52
2020/10/07 10:47:56;;;;;;;2.91;1.18;;;;;;;20.37;64.33;100210.19;;;;-51
2020/10/07 10:50:57;;;;;;;2.33;1.21;;;;;;;20.35;64.32;100209.28;;;;-52
2020/10/07 10:53:56;;;;;;;2.84;1.21;;;;;;;20.33;64.26;100209.04;;;;-52
2020/10/07 10:56:56;;;;;;;4.65;1.23;;;;;;;20.32;64.27;100211.02;;;;-52
2020/10/07 10:59:56;;;;;;;3.15;1.13;;;;;;;20.32;64.23;100208.83;;;;-52
2020/10/07 11:02:58;;;;;;;2.25;1.19;;;;;;;20.30;64.21;100205.64;;;;-52
2020/10/07 11:05:56;;;;;;;1.29;1.00;;;;;;;20.29;64.16;100207.85;;;;-52
2020/10/07 11:08:56;;;;;;;2.47;1.15;;;;;;;20.28;64.15;100207.12;;;;-52
2020/10/07 11:11:57;;;;;;;1.59;1.02;;;;;;;20.27;64.16;100206.28;;;;-52
2020/10/07 11:14:57;;;;;;;2.53;1.12;;;;;;;20.26;64.14;100209.55;;;;-52
2020/10/07 11:17:56;;;;;;;1.51;1.03;;;;;;;20.26;64.15;100209.15;;;;-52
2020/10/07 11:20:56;;;;;;;1.41;1.04;;;;;;;20.26;64.17;100208.01;;;;-52
2020/10/07 11:23:56;;;;;;;3.12;1.12;;;;;;;20.25;64.11;100209.48;;;;-52
2020/10/07 11:26:56;;;;;;;1.41;1.02;;;;;;;20.24;64.12;100210.45;;;;-51
2020/10/07 11:29:56;;;;;;;2.85;1.01;;;;;;;20.23;64.13;100213.06;;;;-52
2020/10/07 11:32:56;;;;;;;1.57;1.11;;;;;;;20.24;64.09;100216.72;;;;-52
2020/10/07 11:35:56;;;;;;;2.20;1.21;;;;;;;20.24;64.08;100214.84;;;;-58
2020/10/07 11:38:56;;;;;;;2.37;1.09;;;;;;;20.23;64.07;100216.14;;;;-58
2020/10/07 11:41:56;;;;;;;1.82;1.08;;;;;;;20.23;64.02;100219.47;;;;-52
2020/10/07 11:44:56;;;;;;;1.98;1.19;;;;;;;20.22;64.04;100216.47;;;;-52
2020/10/07 11:47:56;;;;;;;1.57;1.11;;;;;;;20.22;64.01;100217.44;;;;-52
2020/10/07 11:50:56;;;;;;;1.02;0.95;;;;;;;20.23;64.00;100223.37;;;;-45
2020/10/07 11:53:56;;;;;;;1.21;1.09;;;;;;;20.22;64.15;100227.79;;;;-46
2020/10/07 11:56:56;;;;;;;1.10;1.00;;;;;;;20.25;64.11;100232.33;;;;-57
2020/10/07 11:59:56;;;;;;;1.19;1.00;;;;;;;20.26;64.11;100235.67;;;;-50
2020/10/07 12:02:58;;;;;;;1.91;1.10;;;;;;;20.27;64.13;100238.29;;;;-51
2020/10/07 12:05:56;;;;;;;2.52;1.17;;;;;;;20.28;64.20;100240.96;;;;-54
2020/10/07 12:08:56;;;;;;;3.89;1.11;;;;;;;20.29;64.06;100241.44;;;;-54
2020/10/07 12:11:57;;;;;;;1.27;1.07;;;;;;;20.27;63.97;100247.08;;;;-54
2020/10/07 12:14:56;;;;;;;1.65;1.03;;;;;;;20.26;64.04;100247.88;;;;-54
2020/10/07 12:17:56;;;;;;;1.23;1.02;;;;;;;20.27;64.02;100251.80;;;;-54
2020/10/07 12:20:56;;;;;;;1.50;1.20;;;;;;;20.26;64.02;100254.06;;;;-47
2020/10/07 12:23:56;;;;;;;3.16;1.01;;;;;;;20.26;63.99;100253.74;;;;-47
2020/10/07 12:26:56;;;;;;;1.08;1.01;;;;;;;20.27;64.03;100256.81;;;;-47
2020/10/07 12:29:56;;;;;;;1.42;1.03;;;;;;;20.26;63.97;100256.09;;;;-47
2020/10/07 12:32:56;;;;;;;2.59;1.15;;;;;;;20.26;63.96;100261.14;;;;-47
2020/10/07 12:35:56;;;;;;;1.86;1.21;;;;;;;20.27;63.92;100257.80;;;;-47
2020/10/07 12:38:57;;;;;;;1.71;1.05;;;;;;;20.26;63.90;100263.92;;;;-54
2020/10/07 12:41:59;;;;;;;1.11;1.04;;;;;;;20.25;63.91;100272.19;;;;-54
2020/10/07 12:44:56;;;;;;;1.97;1.13;;;;;;;20.25;63.91;100283.20;;;;-47
2020/10/07 12:47:56;;;;;;;1.19;0.99;;;;;;;20.25;63.89;100289.13;;;;-54
2020/10/07 12:50:56;;;;;;;2.33;1.01;;;;;;;20.24;63.88;100286.04;;;;-55
2020/10/07 12:53:56;;;;;;;2.19;1.07;;;;;;;20.24;63.88;100284.58;;;;-47
2020/10/07 12:56:56;;;;;;;1.11;0.99;;;;;;;20.23;63.93;100284.02;;;;-56
2020/10/07 12:59:56;;;;;;;4.33;1.19;;;;;;;20.24;63.92;100289.46;;;;-51
2020/10/07 13:02:56;;;;;;;1.97;0.97;;;;;;;20.27;64.05;100288.30;;;;-54
2020/10/07 13:05:56;;;;;;;2.43;1.06;;;;;;;20.29;64.10;100287.41;;;;-52
2020/10/07 13:08:56;;;;;;;2.69;1.05;;;;;;;20.30;64.04;100290.11;;;;-50
2020/10/07 13:11:56;;;;;;;1.35;1.00;;;;;;;20.31;64.13;100289.53;;;;-51
2020/10/07 13:14:56;;;;;;;2.17;1.11;;;;;;;20.31;64.05;100296.69;;;;-52
2020/10/07 13:17:56;;;;;;;1.93;1.01;;;;;;;20.33;64.10;100308.50;;;;-51
2020/10/07 13:20:56;;;;;;;1.11;1.01;;;;;;;20.34;64.00;100302.42;;;;-50
2020/10/07 13:23:56;;;;;;;1.76;1.09;;;;;;;20.35;64.14;100302.55;;;;-50
2020/10/07 13:26:56;;;;;;;1.28;1.00;;;;;;;20.35;64.13;100301.66;;;;-56
2020/10/07 13:29:58;;;;;;;1.95;1.02;;;;;;;20.37;64.12;100304.44;;;;-60
2020/10/07 13:32:56;;;;;;;2.57;1.14;;;;;;;20.38;64.03;100308.84;;;;-50
2020/10/07 13:35:56;;;;;;;1.10;1.00;;;;;;;20.40;64.05;100308.27;;;;-54
2020/10/07 13:38:56;;;;;;;2.04;1.19;;;;;;;20.41;64.03;100308.34;;;;-52
2020/10/07 13:41:56;;;;;;;1.77;1.11;;;;;;;20.42;64.11;100307.11;;;;-54
2020/10/07 13:44:57;;;;;;;2.88;1.09;;;;;;;20.42;64.03;100307.70;;;;-55
2020/10/07 13:47:56;;;;;;;1.27;1.00;;;;;;;20.42;64.09;100318.75;;;;-53
2020/10/07 13:50:56;;;;;;;2.88;1.21;;;;;;;20.43;64.10;100315.09;;;;-48
2020/10/07 13:53:56;;;;;;;3.88;1.16;;;;;;;20.44;64.07;100311.66;;;;-50
2020/10/07 13:56:56;;;;;;;1.23;1.12;;;;;;;20.44;64.03;100312.99;;;;-54
2020/10/07 13:59:56;;;;;;;1.81;1.10;;;;;;;20.45;64.02;100310.79;;;;-48
2020/10/07 14:02:56;;;;;;;1.21;1.08;;;;;;;20.46;63.92;100318.98;;;;-47
2020/10/07 14:05:56;;;;;;;1.31;0.98;;;;;;;20.47;63.87;100331.95;;;;-47
2020/10/07 14:08:57;;;;;;;1.46;1.10;;;;;;;20.48;63.93;100331.53;;;;-48
2020/10/07 14:11:56;;;;;;;1.38;1.20;;;;;;;20.48;63.87;100339.67;;;;-54
2020/10/07 14:14:56;;;;;;;1.25;1.03;;;;;;;20.49;63.92;100339.77;;;;-45
2020/10/07 14:17:56;;;;;;;1.17;1.07;;;;;;;20.49;63.87;100348.06;;;;-48
2020/10/07 14:20:57;;;;;;;1.38;0.93;;;;;;;20.51;63.75;100353.69;;;;-47
2020/10/07 14:23:56;;;;;;;1.11;1.01;;;;;;;20.51;63.70;100359.47;;;;-47
2020/10/07 14:26:56;;;;;;;1.55;1.20;;;;;;;20.49;63.62;100354.98;;;;-47
2020/10/07 14:29:56;;;;;;;1.30;1.20;;;;;;;20.48;63.62;100365.31;;;;-47
2020/10/07 14:32:56;;;;;;;1.85;1.31;;;;;;;20.46;63.61;100370.55;;;;-45
2020/10/07 14:35:56;;;;;;;2.38;1.17;;;;;;;20.46;63.62;100375.41;;;;-45
2020/10/07 14:38:56;;;;;;;1.45;1.15;;;;;;;20.44;63.60;100376.08;;;;-45
2020/10/07 14:41:56;;;;;;;2.19;1.20;;;;;;;20.43;63.63;100369.39;;;;-46
2020/10/07 14:44:56;;;;;;;2.98;1.27;;;;;;;20.44;63.67;100372.25;;;;-49
2020/10/07 14:47:56;;;;;;;3.28;1.15;;;;;;;20.45;63.70;100372.31;;;;-52
2020/10/07 14:50:56;;;;;;;2.59;1.15;;;;;;;20.46;63.71;100370.45;;;;-49
2020/10/07 14:53:56;;;;;;;7.19;1.20;;;;;;;20.47;63.78;100376.08;;;;-53
2020/10/07 14:56:56;;;;;;;3.00;1.20;;;;;;;20.48;63.76;100380.88;;;;-54
2020/10/07 14:59:57;;;;;;;1.45;1.11;;;;;;;20.50;63.72;100388.92;;;;-55
2020/10/07 15:02:56;;;;;;;1.55;1.25;;;;;;;20.51;63.68;100387.72;;;;-53
2020/10/07 15:05:56;;;;;;;1.99;1.13;;;;;;;20.52;63.67;100389.33;;;;-53
2020/10/07 15:08:56;;;;;;;2.71;1.20;;;;;;;20.52;63.70;100388.44;;;;-50
2020/10/07 15:11:56;;;;;;;2.50;1.19;;;;;;;20.51;63.67;100386.00;;;;-50
2020/10/07 15:14:56;;;;;;;1.59;1.17;;;;;;;20.53;63.62;100388.70;;;;-56
2020/10/07 15:17:56;;;;;;;2.43;1.20;;;;;;;20.53;63.63;100393.59;;;;-51
2020/10/07 15:20:56;;;;;;;1.36;1.14;;;;;;;20.53;63.62;100395.20;;;;-51
2020/10/07 15:23:56;;;;;;;1.21;1.03;;;;;;;20.54;63.60;100395.11;;;;-54
2020/10/07 15:26:56;;;;;;;1.71;1.18;;;;;;;20.55;63.57;100393.59;;;;-52
2020/10/07 15:29:56;;;;;;;1.82;1.20;;;;;;;20.54;63.64;100401.80;;;;-49
2020/10/07 15:32:56;;;;;;;1.31;1.19;;;;;;;20.54;63.63;100399.59;;;;-50
2020/10/07 15:35:56;;;;;;;3.70;1.25;;;;;;;20.54;63.79;100401.22;;;;-42
2020/10/07 15:38:56;;;;;;;5.65;1.45;;;;;;;20.56;63.71;100406.34;;;;-45
2020/10/07 15:41:57;;;;;;;3.69;1.41;;;;;;;20.59;63.64;100405.02;;;;-50
2020/10/07 15:44:58;;;;;;;3.03;1.25;;;;;;;20.61;63.65;100412.41;;;;-50
2020/10/07 15:47:56;;;;;;;2.45;1.21;;;;;;;20.63;63.69;100414.46;;;;-47
2020/10/07 15:50:57;;;;;;;6.47;1.30;;;;;;;20.66;63.69;100415.36;;;;-50
2020/10/07 15:53:57;;;;;;;4.61;1.32;;;;;;;20.69;63.69;100420.25;;;;-53
2020/10/07 15:56:56;;;;;;;3.30;1.20;;;;;;;20.73;63.73;100420.81;;;;-49
2020/10/07 15:59:56;;;;;;;5.47;1.25;;;;;;;20.77;63.87;100428.22;;;;-51
2020/10/07 16:02:56;;;;;;;1.77;1.10;;;;;;;20.80;63.93;100436.55;;;;-44
2020/10/07 16:06:00;;;;;;;2.41;1.27;;;;;;;20.85;64.24;100443.38;;;;-51
2020/10/07 16:08:56;;;;;;;2.29;1.17;;;;;;;20.89;64.14;100444.69;;;;-51
2020/10/07 16:11:56;;;;;;;1.69;1.15;;;;;;;20.93;64.05;100446.73;;;;-50
2020/10/07 16:14:56;;;;;;;1.76;1.19;;;;;;;20.96;64.15;100445.75;;;;-50
2020/10/07 16:17:56;;;;;;;3.93;1.30;;;;;;;21.00;64.04;100454.86;;;;-50
2020/10/07 16:20:56;;;;;;;2.99;1.57;;;;;;;21.02;64.01;100453.87;;;;-48
2020/10/07 16:23:56;;;;;;;3.25;1.19;;;;;;;21.06;64.05;100465.03;;;;-47
2020/10/07 16:26:57;;;;;;;2.18;1.17;;;;;;;21.08;64.20;100464.98;;;;-49
2020/10/07 16:29:56;;;;;;;1.35;1.17;;;;;;;21.12;64.26;100468.22;;;;-49
2020/10/07 16:32:56;;;;;;;2.57;1.10;;;;;;;21.14;64.24;100475.63;;;;-49
2020/10/07 16:35:56;;;;;;;1.78;1.30;;;;;;;21.17;64.17;100492.84;;;;-50
2020/10/07 16:38:56;;;;;;;4.57;1.10;;;;;;;21.19;64.25;100490.40;;;;-50
2020/10/07 16:41:56;;;;;;;1.25;0.99;;;;;;;21.21;64.21;100495.95;;;;-50
2020/10/07 16:44:56;;;;;;;1.16;1.01;;;;;;;21.23;64.03;100508.30;;;;-47
2020/10/07 16:47:56;;;;;;;2.09;1.19;;;;;;;21.26;64.29;100516.23;;;;-52
2020/10/07 16:50:56;;;;;;;1.20;0.99;;;;;;;21.29;64.50;100523.09;;;;-49
2020/10/07 16:53:56;;;;;;;1.20;1.00;;;;;;;21.31;64.50;100523.23;;;;-47
2020/10/07 16:56:56;;;;;;;2.82;1.10;;;;;;;21.33;64.48;100523.09;;;;-46
2020/10/07 16:59:56;;;;;;;1.95;1.17;;;;;;;21.35;64.44;100530.73;;;;-45
2020/10/07 17:02:56;;;;;;;1.18;1.08;;;;;;;21.37;64.67;100538.63;;;;-46
2020/10/07 17:05:56;;;;;;;1.79;1.05;;;;;;;21.38;64.63;100540.60;;;;-47